<?xml version="1.0" encoding="UTF-8" standalone="no" ?>
<gpx xmlns="http://www.topografix.com/GPX/1/1" xmlns:xsi="http://www.w3.org/2001/XMLSchema-instance" xsi:schemaLocation="http://www.topografix.com/GPX/1/1 http://www.topografix.com/GPX/1/1/gpx.xsd" version="1.1" creator="VisuGPX - https://www.visugpx.com">
  <metadata>
    <name>Les landes de Gurwan - Campénéac 21/05/2018</name>
  </metadata>
  <trk>
    <name><![CDATA[Les landes de Gurwan - Campénéac 21/05/2018]]></name>
    <extensions>
      <line xmlns="http://www.topografix.com/GPX/gpx_style/0/2">
        <color>0000FF</color>
        <width>4</width>
          <extensions>
            <sens>1</sens>
          </extensions>
      </line>
    </extensions>
    <trkseg>
      <trkpt lat="47.99481" lon="-2.26697">
        <ele>175</ele>
        <time>2018-05-21T09:04:53Z</time>
      </trkpt>
      <trkpt lat="47.99481" lon="-2.26697">
        <ele>175</ele>
        <time>2018-05-21T09:05:16Z</time>
      </trkpt>
      <trkpt lat="47.99515" lon="-2.26767">
        <ele>222</ele>
        <time>2018-05-21T09:05:30Z</time>
      </trkpt>
      <trkpt lat="47.99504" lon="-2.26731">
        <ele>178</ele>
        <time>2018-05-21T09:05:44Z</time>
      </trkpt>
      <trkpt lat="47.99507" lon="-2.26754">
        <ele>185</ele>
        <time>2018-05-21T09:05:58Z</time>
      </trkpt>
      <trkpt lat="47.99533" lon="-2.26775">
        <ele>152</ele>
        <time>2018-05-21T09:06:13Z</time>
      </trkpt>
      <trkpt lat="47.99523" lon="-2.26801">
        <ele>156</ele>
        <time>2018-05-21T09:06:27Z</time>
      </trkpt>
      <trkpt lat="47.99535" lon="-2.26808">
        <ele>175</ele>
        <time>2018-05-21T09:06:42Z</time>
      </trkpt>
      <trkpt lat="47.99572" lon="-2.2684">
        <ele>178</ele>
        <time>2018-05-21T09:06:52Z</time>
      </trkpt>
      <trkpt lat="47.99618" lon="-2.26819">
        <ele>174</ele>
        <time>2018-05-21T09:07:38Z</time>
      </trkpt>
      <trkpt lat="47.99603" lon="-2.26902">
        <ele>156</ele>
        <time>2018-05-21T09:07:52Z</time>
      </trkpt>
      <trkpt lat="47.99616" lon="-2.26917">
        <ele>155</ele>
        <time>2018-05-21T09:08:06Z</time>
      </trkpt>
      <trkpt lat="47.99637" lon="-2.26924">
        <ele>167</ele>
        <time>2018-05-21T09:08:21Z</time>
      </trkpt>
      <trkpt lat="47.99638" lon="-2.26944">
        <ele>178</ele>
        <time>2018-05-21T09:08:36Z</time>
      </trkpt>
      <trkpt lat="47.99645" lon="-2.26978">
        <ele>183</ele>
        <time>2018-05-21T09:08:50Z</time>
      </trkpt>
      <trkpt lat="47.99661" lon="-2.26981">
        <ele>186</ele>
        <time>2018-05-21T09:09:04Z</time>
      </trkpt>
      <trkpt lat="47.9968" lon="-2.26981">
        <ele>186</ele>
        <time>2018-05-21T09:09:18Z</time>
      </trkpt>
      <trkpt lat="47.99694" lon="-2.26978">
        <ele>179</ele>
        <time>2018-05-21T09:09:32Z</time>
      </trkpt>
      <trkpt lat="47.99714" lon="-2.26977">
        <ele>180</ele>
        <time>2018-05-21T09:09:47Z</time>
      </trkpt>
      <trkpt lat="47.99725" lon="-2.26968">
        <ele>177</ele>
        <time>2018-05-21T09:10:01Z</time>
      </trkpt>
      <trkpt lat="47.99742" lon="-2.26961">
        <ele>175</ele>
        <time>2018-05-21T09:10:15Z</time>
      </trkpt>
      <trkpt lat="47.9976" lon="-2.26961">
        <ele>176</ele>
        <time>2018-05-21T09:10:30Z</time>
      </trkpt>
      <trkpt lat="47.9978" lon="-2.26952">
        <ele>176</ele>
        <time>2018-05-21T09:10:45Z</time>
      </trkpt>
      <trkpt lat="47.99796" lon="-2.26944">
        <ele>173</ele>
        <time>2018-05-21T09:10:59Z</time>
      </trkpt>
      <trkpt lat="47.99814" lon="-2.26931">
        <ele>178</ele>
        <time>2018-05-21T09:11:14Z</time>
      </trkpt>
      <trkpt lat="47.99825" lon="-2.26916">
        <ele>174</ele>
        <time>2018-05-21T09:11:29Z</time>
      </trkpt>
      <trkpt lat="47.99832" lon="-2.26907">
        <ele>176</ele>
        <time>2018-05-21T09:11:58Z</time>
      </trkpt>
      <trkpt lat="47.99852" lon="-2.269">
        <ele>174</ele>
        <time>2018-05-21T09:12:13Z</time>
      </trkpt>
      <trkpt lat="47.99871" lon="-2.26888">
        <ele>170</ele>
        <time>2018-05-21T09:12:27Z</time>
      </trkpt>
      <trkpt lat="47.99886" lon="-2.2689">
        <ele>174</ele>
        <time>2018-05-21T09:12:41Z</time>
      </trkpt>
      <trkpt lat="47.99895" lon="-2.26892">
        <ele>173</ele>
        <time>2018-05-21T09:12:59Z</time>
      </trkpt>
      <trkpt lat="47.99895" lon="-2.26893">
        <ele>172</ele>
        <time>2018-05-21T09:15:12Z</time>
      </trkpt>
      <trkpt lat="47.99948" lon="-2.26861">
        <ele>182</ele>
        <time>2018-05-21T09:15:27Z</time>
      </trkpt>
      <trkpt lat="47.9996" lon="-2.26855">
        <ele>181</ele>
        <time>2018-05-21T09:15:41Z</time>
      </trkpt>
      <trkpt lat="47.99968" lon="-2.2685">
        <ele>190</ele>
        <time>2018-05-21T09:16:02Z</time>
      </trkpt>
      <trkpt lat="47.99991" lon="-2.26868">
        <ele>185</ele>
        <time>2018-05-21T09:16:17Z</time>
      </trkpt>
      <trkpt lat="48.00007" lon="-2.2687">
        <ele>183.99997828338</ele>
        <time>2018-05-21T09:16:31Z</time>
      </trkpt>
      <trkpt lat="47.99999" lon="-2.26867">
        <ele>181</ele>
        <time>2018-05-21T09:16:48Z</time>
      </trkpt>
      <trkpt lat="47.99984" lon="-2.26838">
        <ele>183</ele>
        <time>2018-05-21T09:16:52Z</time>
      </trkpt>
      <trkpt lat="48.00019" lon="-2.26793">
        <ele>183.9999443694</ele>
        <time>2018-05-21T09:17:11Z</time>
      </trkpt>
      <trkpt lat="47.99992" lon="-2.26803">
        <ele>176</ele>
        <time>2018-05-21T09:17:25Z</time>
      </trkpt>
      <trkpt lat="47.99987" lon="-2.26789">
        <ele>182</ele>
        <time>2018-05-21T09:17:38Z</time>
      </trkpt>
      <trkpt lat="47.99997" lon="-2.26872">
        <ele>164</ele>
        <time>2018-05-21T09:17:52Z</time>
      </trkpt>
      <trkpt lat="47.99984" lon="-2.26867">
        <ele>167</ele>
        <time>2018-05-21T09:18:06Z</time>
      </trkpt>
      <trkpt lat="47.99968" lon="-2.26858">
        <ele>172</ele>
        <time>2018-05-21T09:18:21Z</time>
      </trkpt>
      <trkpt lat="47.99959" lon="-2.26846">
        <ele>172</ele>
        <time>2018-05-21T09:18:36Z</time>
      </trkpt>
      <trkpt lat="47.99956" lon="-2.26857">
        <ele>174</ele>
        <time>2018-05-21T09:18:56Z</time>
      </trkpt>
      <trkpt lat="47.99948" lon="-2.26861">
        <ele>169</ele>
        <time>2018-05-21T09:19:14Z</time>
      </trkpt>
      <trkpt lat="47.99945" lon="-2.26859">
        <ele>168</ele>
        <time>2018-05-21T09:19:18Z</time>
      </trkpt>
      <trkpt lat="47.99941" lon="-2.26877">
        <ele>177</ele>
        <time>2018-05-21T09:20:02Z</time>
      </trkpt>
      <trkpt lat="47.99946" lon="-2.26887">
        <ele>150</ele>
        <time>2018-05-21T09:20:16Z</time>
      </trkpt>
      <trkpt lat="47.99919" lon="-2.26904">
        <ele>142</ele>
        <time>2018-05-21T09:20:31Z</time>
      </trkpt>
      <trkpt lat="47.99903" lon="-2.26894">
        <ele>150</ele>
        <time>2018-05-21T09:20:46Z</time>
      </trkpt>
      <trkpt lat="47.99894" lon="-2.269">
        <ele>152</ele>
        <time>2018-05-21T09:20:56Z</time>
      </trkpt>
      <trkpt lat="47.99821" lon="-2.26926">
        <ele>155</ele>
        <time>2018-05-21T09:21:33Z</time>
      </trkpt>
      <trkpt lat="47.99815" lon="-2.2694">
        <ele>159</ele>
        <time>2018-05-21T09:21:48Z</time>
      </trkpt>
      <trkpt lat="47.99821" lon="-2.26957">
        <ele>147</ele>
        <time>2018-05-21T09:22:02Z</time>
      </trkpt>
      <trkpt lat="47.99835" lon="-2.26967">
        <ele>152</ele>
        <time>2018-05-21T09:22:16Z</time>
      </trkpt>
      <trkpt lat="47.99848" lon="-2.26967">
        <ele>151</ele>
        <time>2018-05-21T09:22:25Z</time>
      </trkpt>
      <trkpt lat="47.99958" lon="-2.26979">
        <ele>178</ele>
        <time>2018-05-21T09:23:49Z</time>
      </trkpt>
      <trkpt lat="47.99929" lon="-2.27016">
        <ele>175</ele>
        <time>2018-05-21T09:24:03Z</time>
      </trkpt>
      <trkpt lat="47.99924" lon="-2.27014">
        <ele>170</ele>
        <time>2018-05-21T09:24:51Z</time>
      </trkpt>
      <trkpt lat="47.9993" lon="-2.27034">
        <ele>169</ele>
        <time>2018-05-21T09:25:43Z</time>
      </trkpt>
      <trkpt lat="48.00004" lon="-2.27076">
        <ele>187.99998711933</ele>
        <time>2018-05-21T09:25:58Z</time>
      </trkpt>
      <trkpt lat="48.00026" lon="-2.27071">
        <ele>183.99991542925</ele>
        <time>2018-05-21T09:26:12Z</time>
      </trkpt>
      <trkpt lat="48.0007" lon="-2.2707">
        <ele>186.99976820166</ele>
        <time>2018-05-21T09:26:27Z</time>
      </trkpt>
      <trkpt lat="48.00087" lon="-2.27065">
        <ele>183.99971334344</ele>
        <time>2018-05-21T09:26:42Z</time>
      </trkpt>
      <trkpt lat="48.00103" lon="-2.27043">
        <ele>182.99966489412</ele>
        <time>2018-05-21T09:26:56Z</time>
      </trkpt>
      <trkpt lat="48.00112" lon="-2.27013">
        <ele>182.99963800805</ele>
        <time>2018-05-21T09:27:10Z</time>
      </trkpt>
      <trkpt lat="48.00118" lon="-2.27001">
        <ele>181.99962276146</ele>
        <time>2018-05-21T09:27:17Z</time>
      </trkpt>
      <trkpt lat="48.00261" lon="-2.27012">
        <ele>175.99916069964</ele>
        <time>2018-05-21T09:30:13Z</time>
      </trkpt>
      <trkpt lat="48.00285" lon="-2.27034">
        <ele>141.99907182059</ele>
        <time>2018-05-21T09:30:27Z</time>
      </trkpt>
      <trkpt lat="48.00338" lon="-2.27027">
        <ele>173.99890488935</ele>
        <time>2018-05-21T09:30:42Z</time>
      </trkpt>
      <trkpt lat="48.00334" lon="-2.27036">
        <ele>177.99891078564</ele>
        <time>2018-05-21T09:30:44Z</time>
      </trkpt>
      <trkpt lat="48.00326" lon="-2.27054">
        <ele>168.9989301792</ele>
        <time>2018-05-21T09:30:59Z</time>
      </trkpt>
      <trkpt lat="48.00314" lon="-2.27129">
        <ele>156.99893094651</ele>
        <time>2018-05-21T09:31:14Z</time>
      </trkpt>
      <trkpt lat="48.00314" lon="-2.27119">
        <ele>152.99893690898</ele>
        <time>2018-05-21T09:31:31Z</time>
      </trkpt>
      <trkpt lat="48.00329" lon="-2.27168">
        <ele>157.99885904716</ele>
        <time>2018-05-21T09:31:46Z</time>
      </trkpt>
      <trkpt lat="48.00315" lon="-2.27212">
        <ele>158.99888581873</ele>
        <time>2018-05-21T09:32:00Z</time>
      </trkpt>
      <trkpt lat="48.0032" lon="-2.27215">
        <ele>159.99886603401</ele>
        <time>2018-05-21T09:32:01Z</time>
      </trkpt>
      <trkpt lat="48.00347" lon="-2.27314">
        <ele>164.9987167853</ele>
        <time>2018-05-21T09:34:07Z</time>
      </trkpt>
      <trkpt lat="48.00304" lon="-2.27357">
        <ele>96.99885521751</ele>
        <time>2018-05-21T09:34:22Z</time>
      </trkpt>
      <trkpt lat="48.00306" lon="-2.27355">
        <ele>96.998846518451</ele>
        <time>2018-05-21T09:35:15Z</time>
      </trkpt>
      <trkpt lat="48.00344" lon="-2.2735">
        <ele>100.99870794641</ele>
        <time>2018-05-21T09:35:22Z</time>
      </trkpt>
      <trkpt lat="48.00344" lon="-2.2735">
        <ele>100.99870794641</ele>
        <time>2018-05-21T09:40:39Z</time>
      </trkpt>
      <trkpt lat="48.00258" lon="-2.26726">
        <ele>102.99928791666</ele>
        <time>2018-05-21T09:40:43Z</time>
      </trkpt>
      <trkpt lat="48.00258" lon="-2.26726">
        <ele>102.99928791666</ele>
        <time>2018-05-21T09:43:39Z</time>
      </trkpt>
      <trkpt lat="48.00252" lon="-2.26746">
        <ele>136.9992971495</ele>
        <time>2018-05-21T09:43:43Z</time>
      </trkpt>
      <trkpt lat="48.00269" lon="-2.26699">
        <ele>145.99926881976</ele>
        <time>2018-05-21T09:44:07Z</time>
      </trkpt>
      <trkpt lat="48.0023" lon="-2.26681">
        <ele>143.99938042008</ele>
        <time>2018-05-21T09:44:20Z</time>
      </trkpt>
      <trkpt lat="48.00248" lon="-2.2668">
        <ele>146.99933466722</ele>
        <time>2018-05-21T09:44:28Z</time>
      </trkpt>
      <trkpt lat="48.00132" lon="-2.26306">
        <ele>218.99972383907</ele>
        <time>2018-05-21T09:48:28Z</time>
      </trkpt>
      <trkpt lat="48.00138" lon="-2.26291">
        <ele>161.99971537619</ele>
        <time>2018-05-21T09:48:41Z</time>
      </trkpt>
      <trkpt lat="48.00169" lon="-2.26334">
        <ele>159.99964030894</ele>
        <time>2018-05-21T09:48:56Z</time>
      </trkpt>
      <trkpt lat="48.00164" lon="-2.26297">
        <ele>174.99965901017</ele>
        <time>2018-05-21T09:49:08Z</time>
      </trkpt>
      <trkpt lat="48.00114" lon="-2.26168">
        <ele>193.99978642655</ele>
        <time>2018-05-21T09:50:43Z</time>
      </trkpt>
      <trkpt lat="48.00104" lon="-2.26156">
        <ele>174.99980696959</ele>
        <time>2018-05-21T09:50:58Z</time>
      </trkpt>
      <trkpt lat="48.00102" lon="-2.26148">
        <ele>174.99981205583</ele>
        <time>2018-05-21T09:51:13Z</time>
      </trkpt>
      <trkpt lat="48.001" lon="-2.26114">
        <ele>170.99982149343</ele>
        <time>2018-05-21T09:51:28Z</time>
      </trkpt>
      <trkpt lat="48.00089" lon="-2.26101">
        <ele>168.99984359467</ele>
        <time>2018-05-21T09:51:39Z</time>
      </trkpt>
      <trkpt lat="48.0009" lon="-2.26113">
        <ele>165.99984004439</ele>
        <time>2018-05-21T09:52:00Z</time>
      </trkpt>
      <trkpt lat="48.00072" lon="-2.26114">
        <ele>166.99987173829</ele>
        <time>2018-05-21T09:52:15Z</time>
      </trkpt>
      <trkpt lat="48.00062" lon="-2.26116">
        <ele>163.99988992434</ele>
        <time>2018-05-21T09:52:29Z</time>
      </trkpt>
      <trkpt lat="47.99982" lon="-2.26073">
        <ele>176</ele>
        <time>2018-05-21T09:53:16Z</time>
      </trkpt>
      <trkpt lat="48.00001" lon="-2.26126">
        <ele>166.99999849721</ele>
        <time>2018-05-21T09:53:31Z</time>
      </trkpt>
      <trkpt lat="47.99994" lon="-2.26126">
        <ele>153</ele>
        <time>2018-05-21T09:53:46Z</time>
      </trkpt>
      <trkpt lat="47.99966" lon="-2.26151">
        <ele>167</ele>
        <time>2018-05-21T09:54:00Z</time>
      </trkpt>
      <trkpt lat="47.99957" lon="-2.26158">
        <ele>170</ele>
        <time>2018-05-21T09:54:14Z</time>
      </trkpt>
      <trkpt lat="47.99943" lon="-2.26154">
        <ele>172</ele>
        <time>2018-05-21T09:54:29Z</time>
      </trkpt>
      <trkpt lat="47.99929" lon="-2.26154">
        <ele>171</ele>
        <time>2018-05-21T09:54:35Z</time>
      </trkpt>
      <trkpt lat="47.99898" lon="-2.26122">
        <ele>172</ele>
        <time>2018-05-21T09:54:52Z</time>
      </trkpt>
      <trkpt lat="47.99906" lon="-2.26093">
        <ele>179</ele>
        <time>2018-05-21T09:55:18Z</time>
      </trkpt>
      <trkpt lat="47.99898" lon="-2.2609">
        <ele>179</ele>
        <time>2018-05-21T09:55:33Z</time>
      </trkpt>
      <trkpt lat="47.99878" lon="-2.26088">
        <ele>181</ele>
        <time>2018-05-21T09:55:36Z</time>
      </trkpt>
      <trkpt lat="47.99866" lon="-2.26097">
        <ele>177</ele>
        <time>2018-05-21T09:55:51Z</time>
      </trkpt>
      <trkpt lat="47.9987" lon="-2.2604">
        <ele>175</ele>
        <time>2018-05-21T09:56:06Z</time>
      </trkpt>
      <trkpt lat="47.99859" lon="-2.2604">
        <ele>178</ele>
        <time>2018-05-21T09:56:21Z</time>
      </trkpt>
      <trkpt lat="47.99833" lon="-2.26014">
        <ele>185</ele>
        <time>2018-05-21T09:56:35Z</time>
      </trkpt>
      <trkpt lat="47.99849" lon="-2.25989">
        <ele>143</ele>
        <time>2018-05-21T09:56:50Z</time>
      </trkpt>
      <trkpt lat="47.99852" lon="-2.25954">
        <ele>163</ele>
        <time>2018-05-21T09:57:03Z</time>
      </trkpt>
      <trkpt lat="47.99809" lon="-2.25921">
        <ele>170</ele>
        <time>2018-05-21T09:57:18Z</time>
      </trkpt>
      <trkpt lat="47.99792" lon="-2.25912">
        <ele>168</ele>
        <time>2018-05-21T09:57:32Z</time>
      </trkpt>
      <trkpt lat="47.99823" lon="-2.25861">
        <ele>172</ele>
        <time>2018-05-21T09:57:46Z</time>
      </trkpt>
      <trkpt lat="47.99829" lon="-2.25842">
        <ele>170</ele>
        <time>2018-05-21T09:58:00Z</time>
      </trkpt>
      <trkpt lat="47.99858" lon="-2.25835">
        <ele>173</ele>
        <time>2018-05-21T09:58:15Z</time>
      </trkpt>
      <trkpt lat="47.99831" lon="-2.25814">
        <ele>174</ele>
        <time>2018-05-21T09:58:37Z</time>
      </trkpt>
      <trkpt lat="47.99804" lon="-2.25815">
        <ele>175</ele>
        <time>2018-05-21T09:58:45Z</time>
      </trkpt>
      <trkpt lat="47.99764" lon="-2.25786">
        <ele>174</ele>
        <time>2018-05-21T09:59:00Z</time>
      </trkpt>
      <trkpt lat="47.99761" lon="-2.25788">
        <ele>173</ele>
        <time>2018-05-21T09:59:03Z</time>
      </trkpt>
      <trkpt lat="47.99626" lon="-2.25562">
        <ele>163</ele>
        <time>2018-05-21T10:02:02Z</time>
      </trkpt>
      <trkpt lat="47.99633" lon="-2.25587">
        <ele>161</ele>
        <time>2018-05-21T10:02:15Z</time>
      </trkpt>
      <trkpt lat="47.99613" lon="-2.25511">
        <ele>144</ele>
        <time>2018-05-21T10:03:40Z</time>
      </trkpt>
      <trkpt lat="47.99619" lon="-2.25505">
        <ele>162</ele>
        <time>2018-05-21T10:03:46Z</time>
      </trkpt>
      <trkpt lat="47.99413" lon="-2.25496">
        <ele>169</ele>
        <time>2018-05-21T10:07:12Z</time>
      </trkpt>
      <trkpt lat="47.9937" lon="-2.25537">
        <ele>160</ele>
        <time>2018-05-21T10:07:27Z</time>
      </trkpt>
      <trkpt lat="47.99396" lon="-2.25511">
        <ele>136</ele>
        <time>2018-05-21T10:07:34Z</time>
      </trkpt>
      <trkpt lat="47.99168" lon="-2.25549">
        <ele>83</ele>
        <time>2018-05-21T10:10:41Z</time>
      </trkpt>
      <trkpt lat="47.99165" lon="-2.25516">
        <ele>104</ele>
        <time>2018-05-21T10:10:55Z</time>
      </trkpt>
      <trkpt lat="47.99163" lon="-2.2551">
        <ele>107</ele>
        <time>2018-05-21T10:10:56Z</time>
      </trkpt>
      <trkpt lat="47.99166" lon="-2.25449">
        <ele>106</ele>
        <time>2018-05-21T10:11:27Z</time>
      </trkpt>
      <trkpt lat="47.99156" lon="-2.2541">
        <ele>123</ele>
        <time>2018-05-21T10:11:42Z</time>
      </trkpt>
      <trkpt lat="47.99129" lon="-2.25419">
        <ele>149</ele>
        <time>2018-05-21T10:11:56Z</time>
      </trkpt>
      <trkpt lat="47.99117" lon="-2.25426">
        <ele>152</ele>
        <time>2018-05-21T10:12:10Z</time>
      </trkpt>
      <trkpt lat="47.99106" lon="-2.25436">
        <ele>154</ele>
        <time>2018-05-21T10:12:24Z</time>
      </trkpt>
      <trkpt lat="47.99101" lon="-2.25439">
        <ele>153</ele>
        <time>2018-05-21T10:12:26Z</time>
      </trkpt>
      <trkpt lat="47.99014" lon="-2.25549">
        <ele>185</ele>
        <time>2018-05-21T10:13:49Z</time>
      </trkpt>
      <trkpt lat="47.99" lon="-2.25542">
        <ele>172</ele>
        <time>2018-05-21T10:14:03Z</time>
      </trkpt>
      <trkpt lat="47.99011" lon="-2.25547">
        <ele>175</ele>
        <time>2018-05-21T10:14:18Z</time>
      </trkpt>
      <trkpt lat="47.99006" lon="-2.25571">
        <ele>167</ele>
        <time>2018-05-21T10:14:32Z</time>
      </trkpt>
      <trkpt lat="47.98997" lon="-2.25587">
        <ele>162</ele>
        <time>2018-05-21T10:14:45Z</time>
      </trkpt>
      <trkpt lat="47.98985" lon="-2.25592">
        <ele>165</ele>
        <time>2018-05-21T10:14:52Z</time>
      </trkpt>
      <trkpt lat="47.98964" lon="-2.25583">
        <ele>178</ele>
        <time>2018-05-21T10:15:41Z</time>
      </trkpt>
      <trkpt lat="47.9897" lon="-2.25641">
        <ele>183</ele>
        <time>2018-05-21T10:15:55Z</time>
      </trkpt>
      <trkpt lat="47.98986" lon="-2.25641">
        <ele>193</ele>
        <time>2018-05-21T10:16:10Z</time>
      </trkpt>
      <trkpt lat="47.99016" lon="-2.25667">
        <ele>191</ele>
        <time>2018-05-21T10:16:24Z</time>
      </trkpt>
      <trkpt lat="47.99022" lon="-2.25687">
        <ele>188</ele>
        <time>2018-05-21T10:16:38Z</time>
      </trkpt>
      <trkpt lat="47.99043" lon="-2.25699">
        <ele>189</ele>
        <time>2018-05-21T10:16:45Z</time>
      </trkpt>
      <trkpt lat="47.99042" lon="-2.25661">
        <ele>193</ele>
        <time>2018-05-21T10:17:07Z</time>
      </trkpt>
      <trkpt lat="47.99049" lon="-2.25659">
        <ele>186</ele>
        <time>2018-05-21T10:17:20Z</time>
      </trkpt>
      <trkpt lat="47.9904" lon="-2.25656">
        <ele>184</ele>
        <time>2018-05-21T10:17:27Z</time>
      </trkpt>
      <trkpt lat="47.99066" lon="-2.25669">
        <ele>255</ele>
        <time>2018-05-21T10:19:11Z</time>
      </trkpt>
      <trkpt lat="47.99045" lon="-2.25677">
        <ele>208</ele>
        <time>2018-05-21T10:19:25Z</time>
      </trkpt>
      <trkpt lat="47.99045" lon="-2.25677">
        <ele>210</ele>
        <time>2018-05-21T10:19:50Z</time>
      </trkpt>
      <trkpt lat="47.99045" lon="-2.25677">
        <ele>210</ele>
        <time>2018-05-21T10:20:21Z</time>
      </trkpt>
      <trkpt lat="47.99012" lon="-2.25665">
        <ele>178</ele>
        <time>2018-05-21T10:20:24Z</time>
      </trkpt>
      <trkpt lat="47.99011" lon="-2.25673">
        <ele>187</ele>
        <time>2018-05-21T11:01:19Z</time>
      </trkpt>
      <trkpt lat="47.99025" lon="-2.25684">
        <ele>194</ele>
        <time>2018-05-21T11:01:56Z</time>
      </trkpt>
      <trkpt lat="47.99008" lon="-2.25673">
        <ele>197</ele>
        <time>2018-05-21T11:02:10Z</time>
      </trkpt>
      <trkpt lat="47.98983" lon="-2.25647">
        <ele>199</ele>
        <time>2018-05-21T11:02:24Z</time>
      </trkpt>
      <trkpt lat="47.9897" lon="-2.25646">
        <ele>189</ele>
        <time>2018-05-21T11:02:39Z</time>
      </trkpt>
      <trkpt lat="47.9896" lon="-2.25619">
        <ele>188</ele>
        <time>2018-05-21T11:02:53Z</time>
      </trkpt>
      <trkpt lat="47.98949" lon="-2.25615">
        <ele>190</ele>
        <time>2018-05-21T11:03:07Z</time>
      </trkpt>
      <trkpt lat="47.98938" lon="-2.25637">
        <ele>189</ele>
        <time>2018-05-21T11:03:22Z</time>
      </trkpt>
      <trkpt lat="47.98931" lon="-2.25643">
        <ele>189</ele>
        <time>2018-05-21T11:03:42Z</time>
      </trkpt>
      <trkpt lat="47.98915" lon="-2.25631">
        <ele>191</ele>
        <time>2018-05-21T11:03:56Z</time>
      </trkpt>
      <trkpt lat="47.989" lon="-2.25625">
        <ele>191</ele>
        <time>2018-05-21T11:04:10Z</time>
      </trkpt>
      <trkpt lat="47.98867" lon="-2.25607">
        <ele>194</ele>
        <time>2018-05-21T11:04:24Z</time>
      </trkpt>
      <trkpt lat="47.98845" lon="-2.25643">
        <ele>196</ele>
        <time>2018-05-21T11:04:39Z</time>
      </trkpt>
      <trkpt lat="47.98828" lon="-2.25665">
        <ele>196</ele>
        <time>2018-05-21T11:04:53Z</time>
      </trkpt>
      <trkpt lat="47.98811" lon="-2.25693">
        <ele>193</ele>
        <time>2018-05-21T11:05:08Z</time>
      </trkpt>
      <trkpt lat="47.98803" lon="-2.25673">
        <ele>192</ele>
        <time>2018-05-21T11:05:22Z</time>
      </trkpt>
      <trkpt lat="47.98797" lon="-2.2568">
        <ele>196</ele>
        <time>2018-05-21T11:05:40Z</time>
      </trkpt>
      <trkpt lat="47.98741" lon="-2.25692">
        <ele>212</ele>
        <time>2018-05-21T11:06:16Z</time>
      </trkpt>
      <trkpt lat="47.98707" lon="-2.25675">
        <ele>222</ele>
        <time>2018-05-21T11:06:31Z</time>
      </trkpt>
      <trkpt lat="47.98702" lon="-2.25673">
        <ele>222</ele>
        <time>2018-05-21T11:06:36Z</time>
      </trkpt>
      <trkpt lat="47.98653" lon="-2.25823">
        <ele>241</ele>
        <time>2018-05-21T11:07:35Z</time>
      </trkpt>
      <trkpt lat="47.98555" lon="-2.25775">
        <ele>223</ele>
        <time>2018-05-21T11:08:39Z</time>
      </trkpt>
      <trkpt lat="47.98561" lon="-2.25826">
        <ele>162</ele>
        <time>2018-05-21T11:08:54Z</time>
      </trkpt>
      <trkpt lat="47.98549" lon="-2.25814">
        <ele>173</ele>
        <time>2018-05-21T11:09:08Z</time>
      </trkpt>
      <trkpt lat="47.98534" lon="-2.2583">
        <ele>169</ele>
        <time>2018-05-21T11:09:22Z</time>
      </trkpt>
      <trkpt lat="47.98527" lon="-2.25826">
        <ele>169</ele>
        <time>2018-05-21T11:09:25Z</time>
      </trkpt>
      <trkpt lat="47.9851" lon="-2.25865">
        <ele>182</ele>
        <time>2018-05-21T11:09:44Z</time>
      </trkpt>
      <trkpt lat="47.9849" lon="-2.25879">
        <ele>194</ele>
        <time>2018-05-21T11:09:58Z</time>
      </trkpt>
      <trkpt lat="47.9846" lon="-2.25884">
        <ele>216</ele>
        <time>2018-05-21T11:10:13Z</time>
      </trkpt>
      <trkpt lat="47.98434" lon="-2.25885">
        <ele>236</ele>
        <time>2018-05-21T11:10:28Z</time>
      </trkpt>
      <trkpt lat="47.98417" lon="-2.25888">
        <ele>237</ele>
        <time>2018-05-21T11:10:42Z</time>
      </trkpt>
      <trkpt lat="47.98404" lon="-2.2591">
        <ele>231</ele>
        <time>2018-05-21T11:10:56Z</time>
      </trkpt>
      <trkpt lat="47.98401" lon="-2.25939">
        <ele>216</ele>
        <time>2018-05-21T11:11:11Z</time>
      </trkpt>
      <trkpt lat="47.98377" lon="-2.25951">
        <ele>214</ele>
        <time>2018-05-21T11:11:26Z</time>
      </trkpt>
      <trkpt lat="47.98356" lon="-2.2593">
        <ele>222</ele>
        <time>2018-05-21T11:11:40Z</time>
      </trkpt>
      <trkpt lat="47.98324" lon="-2.25924">
        <ele>229</ele>
        <time>2018-05-21T11:11:55Z</time>
      </trkpt>
      <trkpt lat="47.98296" lon="-2.25909">
        <ele>234</ele>
        <time>2018-05-21T11:12:09Z</time>
      </trkpt>
      <trkpt lat="47.9829" lon="-2.25936">
        <ele>236</ele>
        <time>2018-05-21T11:12:23Z</time>
      </trkpt>
      <trkpt lat="47.98265" lon="-2.25929">
        <ele>241</ele>
        <time>2018-05-21T11:12:38Z</time>
      </trkpt>
      <trkpt lat="47.98252" lon="-2.25946">
        <ele>238</ele>
        <time>2018-05-21T11:12:52Z</time>
      </trkpt>
      <trkpt lat="47.98232" lon="-2.25939">
        <ele>221</ele>
        <time>2018-05-21T11:13:07Z</time>
      </trkpt>
      <trkpt lat="47.98212" lon="-2.25937">
        <ele>234</ele>
        <time>2018-05-21T11:13:21Z</time>
      </trkpt>
      <trkpt lat="47.98207" lon="-2.25954">
        <ele>215</ele>
        <time>2018-05-21T11:13:35Z</time>
      </trkpt>
      <trkpt lat="47.982" lon="-2.25976">
        <ele>197</ele>
        <time>2018-05-21T11:13:50Z</time>
      </trkpt>
      <trkpt lat="47.98172" lon="-2.25952">
        <ele>194</ele>
        <time>2018-05-21T11:14:05Z</time>
      </trkpt>
      <trkpt lat="47.98169" lon="-2.25967">
        <ele>194</ele>
        <time>2018-05-21T11:14:09Z</time>
      </trkpt>
      <trkpt lat="47.98155" lon="-2.26276">
        <ele>159</ele>
        <time>2018-05-21T11:16:54Z</time>
      </trkpt>
      <trkpt lat="47.98155" lon="-2.26281">
        <ele>151</ele>
        <time>2018-05-21T11:17:13Z</time>
      </trkpt>
      <trkpt lat="47.98129" lon="-2.26283">
        <ele>78</ele>
        <time>2018-05-21T11:17:26Z</time>
      </trkpt>
      <trkpt lat="47.98096" lon="-2.26262">
        <ele>89</ele>
        <time>2018-05-21T11:17:40Z</time>
      </trkpt>
      <trkpt lat="47.98081" lon="-2.26286">
        <ele>118</ele>
        <time>2018-05-21T11:17:54Z</time>
      </trkpt>
      <trkpt lat="47.98047" lon="-2.26314">
        <ele>120</ele>
        <time>2018-05-21T11:18:07Z</time>
      </trkpt>
      <trkpt lat="47.98062" lon="-2.26348">
        <ele>113</ele>
        <time>2018-05-21T11:18:22Z</time>
      </trkpt>
      <trkpt lat="47.98074" lon="-2.26346">
        <ele>125</ele>
        <time>2018-05-21T11:18:36Z</time>
      </trkpt>
      <trkpt lat="47.98086" lon="-2.26339">
        <ele>116</ele>
        <time>2018-05-21T11:18:50Z</time>
      </trkpt>
      <trkpt lat="47.97958" lon="-2.26786">
        <ele>21</ele>
        <time>2018-05-21T11:26:20Z</time>
      </trkpt>
      <trkpt lat="47.9793" lon="-2.26803">
        <ele>55</ele>
        <time>2018-05-21T11:26:35Z</time>
      </trkpt>
      <trkpt lat="47.97929" lon="-2.26826">
        <ele>69</ele>
        <time>2018-05-21T11:26:49Z</time>
      </trkpt>
      <trkpt lat="47.97906" lon="-2.26848">
        <ele>79</ele>
        <time>2018-05-21T11:27:03Z</time>
      </trkpt>
      <trkpt lat="47.9788" lon="-2.26872">
        <ele>98</ele>
        <time>2018-05-21T11:27:18Z</time>
      </trkpt>
      <trkpt lat="47.97842" lon="-2.26907">
        <ele>93</ele>
        <time>2018-05-21T11:27:33Z</time>
      </trkpt>
      <trkpt lat="47.97849" lon="-2.26935">
        <ele>87</ele>
        <time>2018-05-21T11:27:47Z</time>
      </trkpt>
      <trkpt lat="47.97837" lon="-2.26932">
        <ele>85</ele>
        <time>2018-05-21T11:28:02Z</time>
      </trkpt>
      <trkpt lat="47.97835" lon="-2.26949">
        <ele>67</ele>
        <time>2018-05-21T11:28:17Z</time>
      </trkpt>
      <trkpt lat="47.97824" lon="-2.26968">
        <ele>70</ele>
        <time>2018-05-21T11:28:30Z</time>
      </trkpt>
      <trkpt lat="47.97823" lon="-2.26968">
        <ele>70</ele>
        <time>2018-05-21T11:28:32Z</time>
      </trkpt>
      <trkpt lat="47.97504" lon="-2.27345">
        <ele>92</ele>
        <time>2018-05-21T11:36:27Z</time>
      </trkpt>
      <trkpt lat="47.97519" lon="-2.27316">
        <ele>65</ele>
        <time>2018-05-21T11:36:42Z</time>
      </trkpt>
      <trkpt lat="47.9752" lon="-2.27312">
        <ele>67</ele>
        <time>2018-05-21T11:38:25Z</time>
      </trkpt>
      <trkpt lat="47.9752" lon="-2.27312">
        <ele>67</ele>
        <time>2018-05-21T11:38:25Z</time>
      </trkpt>
      <trkpt lat="47.9752" lon="-2.27312">
        <ele>67</ele>
        <time>2018-05-21T11:38:26Z</time>
      </trkpt>
      <trkpt lat="47.9752" lon="-2.27313">
        <ele>67</ele>
        <time>2018-05-21T11:39:33Z</time>
      </trkpt>
      <trkpt lat="47.9752" lon="-2.27586">
        <ele>7</ele>
        <time>2018-05-21T11:42:16Z</time>
      </trkpt>
      <trkpt lat="47.97522" lon="-2.2759">
        <ele>43</ele>
        <time>2018-05-21T11:42:33Z</time>
      </trkpt>
      <trkpt lat="47.97541" lon="-2.27613">
        <ele>61</ele>
        <time>2018-05-21T11:42:48Z</time>
      </trkpt>
      <trkpt lat="47.97558" lon="-2.27616">
        <ele>58</ele>
        <time>2018-05-21T11:43:03Z</time>
      </trkpt>
      <trkpt lat="47.97575" lon="-2.27618">
        <ele>56</ele>
        <time>2018-05-21T11:43:14Z</time>
      </trkpt>
      <trkpt lat="47.97617" lon="-2.27637">
        <ele>64</ele>
        <time>2018-05-21T11:43:34Z</time>
      </trkpt>
      <trkpt lat="47.97624" lon="-2.2763">
        <ele>69</ele>
        <time>2018-05-21T11:43:47Z</time>
      </trkpt>
      <trkpt lat="47.97629" lon="-2.27622">
        <ele>80</ele>
        <time>2018-05-21T11:43:51Z</time>
      </trkpt>
      <trkpt lat="47.97687" lon="-2.27616">
        <ele>70</ele>
        <time>2018-05-21T11:45:10Z</time>
      </trkpt>
      <trkpt lat="47.97703" lon="-2.27602">
        <ele>72</ele>
        <time>2018-05-21T11:45:21Z</time>
      </trkpt>
      <trkpt lat="47.97725" lon="-2.27557">
        <ele>72</ele>
        <time>2018-05-21T11:45:58Z</time>
      </trkpt>
      <trkpt lat="47.97755" lon="-2.27537">
        <ele>90</ele>
        <time>2018-05-21T11:46:12Z</time>
      </trkpt>
      <trkpt lat="47.97883" lon="-2.27392">
        <ele>116</ele>
        <time>2018-05-21T11:47:50Z</time>
      </trkpt>
      <trkpt lat="47.97907" lon="-2.27341">
        <ele>120</ele>
        <time>2018-05-21T11:48:56Z</time>
      </trkpt>
      <trkpt lat="47.97945" lon="-2.27332">
        <ele>102</ele>
        <time>2018-05-21T11:49:10Z</time>
      </trkpt>
      <trkpt lat="47.97949" lon="-2.27333">
        <ele>95</ele>
        <time>2018-05-21T11:49:23Z</time>
      </trkpt>
      <trkpt lat="47.97959" lon="-2.27338">
        <ele>90</ele>
        <time>2018-05-21T11:49:37Z</time>
      </trkpt>
      <trkpt lat="47.97973" lon="-2.27341">
        <ele>93</ele>
        <time>2018-05-21T11:49:48Z</time>
      </trkpt>
      <trkpt lat="47.98051" lon="-2.27494">
        <ele>67</ele>
        <time>2018-05-21T11:51:32Z</time>
      </trkpt>
      <trkpt lat="47.98058" lon="-2.2751">
        <ele>39</ele>
        <time>2018-05-21T11:51:47Z</time>
      </trkpt>
      <trkpt lat="47.9806" lon="-2.27533">
        <ele>41</ele>
        <time>2018-05-21T11:51:56Z</time>
      </trkpt>
      <trkpt lat="47.98103" lon="-2.27499">
        <ele>41</ele>
        <time>2018-05-21T11:52:23Z</time>
      </trkpt>
      <trkpt lat="47.98115" lon="-2.27547">
        <ele>96</ele>
        <time>2018-05-21T11:52:38Z</time>
      </trkpt>
      <trkpt lat="47.98128" lon="-2.27543">
        <ele>104</ele>
        <time>2018-05-21T11:52:48Z</time>
      </trkpt>
      <trkpt lat="47.98286" lon="-2.27563">
        <ele>85</ele>
        <time>2018-05-21T11:55:05Z</time>
      </trkpt>
      <trkpt lat="47.98291" lon="-2.27558">
        <ele>91</ele>
        <time>2018-05-21T11:55:20Z</time>
      </trkpt>
      <trkpt lat="47.98327" lon="-2.27561">
        <ele>84</ele>
        <time>2018-05-21T11:55:35Z</time>
      </trkpt>
      <trkpt lat="47.98355" lon="-2.27559">
        <ele>89</ele>
        <time>2018-05-21T11:55:49Z</time>
      </trkpt>
      <trkpt lat="47.98346" lon="-2.27556">
        <ele>85</ele>
        <time>2018-05-21T11:55:56Z</time>
      </trkpt>
      <trkpt lat="47.98391" lon="-2.27564">
        <ele>87</ele>
        <time>2018-05-21T11:56:23Z</time>
      </trkpt>
      <trkpt lat="47.98401" lon="-2.27582">
        <ele>83</ele>
        <time>2018-05-21T11:56:25Z</time>
      </trkpt>
      <trkpt lat="47.98477" lon="-2.27422">
        <ele>84</ele>
        <time>2018-05-21T11:57:52Z</time>
      </trkpt>
      <trkpt lat="47.98484" lon="-2.27405">
        <ele>104</ele>
        <time>2018-05-21T11:57:57Z</time>
      </trkpt>
      <trkpt lat="47.98514" lon="-2.27408">
        <ele>55</ele>
        <time>2018-05-21T11:58:20Z</time>
      </trkpt>
      <trkpt lat="47.98501" lon="-2.27402">
        <ele>124</ele>
        <time>2018-05-21T11:58:34Z</time>
      </trkpt>
      <trkpt lat="47.98504" lon="-2.27405">
        <ele>126</ele>
        <time>2018-05-21T11:58:44Z</time>
      </trkpt>
      <trkpt lat="47.98588" lon="-2.27374">
        <ele>131</ele>
        <time>2018-05-21T11:59:42Z</time>
      </trkpt>
      <trkpt lat="47.98563" lon="-2.27377">
        <ele>102</ele>
        <time>2018-05-21T11:59:53Z</time>
      </trkpt>
      <trkpt lat="47.98576" lon="-2.27349">
        <ele>110</ele>
        <time>2018-05-21T12:00:07Z</time>
      </trkpt>
      <trkpt lat="47.98561" lon="-2.2733">
        <ele>115</ele>
        <time>2018-05-21T12:00:21Z</time>
      </trkpt>
      <trkpt lat="47.98574" lon="-2.27322">
        <ele>115</ele>
        <time>2018-05-21T12:00:36Z</time>
      </trkpt>
      <trkpt lat="47.98598" lon="-2.27327">
        <ele>116</ele>
        <time>2018-05-21T12:00:51Z</time>
      </trkpt>
      <trkpt lat="47.9862" lon="-2.27323">
        <ele>134</ele>
        <time>2018-05-21T12:01:05Z</time>
      </trkpt>
      <trkpt lat="47.98617" lon="-2.27364">
        <ele>132</ele>
        <time>2018-05-21T12:01:20Z</time>
      </trkpt>
      <trkpt lat="47.98628" lon="-2.27336">
        <ele>127</ele>
        <time>2018-05-21T12:01:28Z</time>
      </trkpt>
      <trkpt lat="47.98724" lon="-2.27441">
        <ele>106</ele>
        <time>2018-05-21T12:03:08Z</time>
      </trkpt>
      <trkpt lat="47.98725" lon="-2.27443">
        <ele>107</ele>
        <time>2018-05-21T12:03:09Z</time>
      </trkpt>
      <trkpt lat="47.9877" lon="-2.27535">
        <ele>120</ele>
        <time>2018-05-21T12:04:21Z</time>
      </trkpt>
      <trkpt lat="47.98775" lon="-2.27573">
        <ele>107</ele>
        <time>2018-05-21T12:04:35Z</time>
      </trkpt>
      <trkpt lat="47.988" lon="-2.27576">
        <ele>108</ele>
        <time>2018-05-21T12:04:49Z</time>
      </trkpt>
      <trkpt lat="47.98791" lon="-2.27617">
        <ele>99</ele>
        <time>2018-05-21T12:04:57Z</time>
      </trkpt>
      <trkpt lat="47.98805" lon="-2.27607">
        <ele>99</ele>
        <time>2018-05-21T12:05:11Z</time>
      </trkpt>
      <trkpt lat="47.98819" lon="-2.27644">
        <ele>103</ele>
        <time>2018-05-21T12:05:26Z</time>
      </trkpt>
      <trkpt lat="47.98827" lon="-2.27673">
        <ele>87</ele>
        <time>2018-05-21T12:05:41Z</time>
      </trkpt>
      <trkpt lat="47.98863" lon="-2.27666">
        <ele>95</ele>
        <time>2018-05-21T12:05:56Z</time>
      </trkpt>
      <trkpt lat="47.98868" lon="-2.27656">
        <ele>111</ele>
        <time>2018-05-21T12:06:20Z</time>
      </trkpt>
      <trkpt lat="47.98894" lon="-2.27619">
        <ele>122</ele>
        <time>2018-05-21T12:06:35Z</time>
      </trkpt>
      <trkpt lat="47.98894" lon="-2.27599">
        <ele>130</ele>
        <time>2018-05-21T12:06:50Z</time>
      </trkpt>
      <trkpt lat="47.98887" lon="-2.27616">
        <ele>137</ele>
        <time>2018-05-21T12:07:01Z</time>
      </trkpt>
      <trkpt lat="47.98918" lon="-2.27603">
        <ele>139</ele>
        <time>2018-05-21T12:07:16Z</time>
      </trkpt>
      <trkpt lat="47.98939" lon="-2.2757">
        <ele>144</ele>
        <time>2018-05-21T12:07:28Z</time>
      </trkpt>
      <trkpt lat="47.99039" lon="-2.27435">
        <ele>210</ele>
        <time>2018-05-21T12:09:18Z</time>
      </trkpt>
      <trkpt lat="47.99033" lon="-2.27405">
        <ele>210</ele>
        <time>2018-05-21T12:09:31Z</time>
      </trkpt>
      <trkpt lat="47.99199" lon="-2.27246">
        <ele>157</ele>
        <time>2018-05-21T12:12:33Z</time>
      </trkpt>
      <trkpt lat="47.99209" lon="-2.27169">
        <ele>176</ele>
        <time>2018-05-21T12:12:45Z</time>
      </trkpt>
      <trkpt lat="47.99165" lon="-2.27002">
        <ele>167</ele>
        <time>2018-05-21T12:14:40Z</time>
      </trkpt>
      <trkpt lat="47.99184" lon="-2.26974">
        <ele>184</ele>
        <time>2018-05-21T12:14:54Z</time>
      </trkpt>
      <trkpt lat="47.99197" lon="-2.26946">
        <ele>167</ele>
        <time>2018-05-21T12:15:09Z</time>
      </trkpt>
      <trkpt lat="47.99202" lon="-2.26928">
        <ele>171</ele>
        <time>2018-05-21T12:15:14Z</time>
      </trkpt>
      <trkpt lat="47.99201" lon="-2.26912">
        <ele>169</ele>
        <time>2018-05-21T12:15:34Z</time>
      </trkpt>
      <trkpt lat="47.99187" lon="-2.26908">
        <ele>182</ele>
        <time>2018-05-21T12:15:48Z</time>
      </trkpt>
      <trkpt lat="47.99169" lon="-2.26895">
        <ele>169</ele>
        <time>2018-05-21T12:16:01Z</time>
      </trkpt>
      <trkpt lat="47.99166" lon="-2.26894">
        <ele>168</ele>
        <time>2018-05-21T12:16:03Z</time>
      </trkpt>
      <trkpt lat="47.99341" lon="-2.27186">
        <ele>211</ele>
        <time>2018-05-21T12:22:42Z</time>
      </trkpt>
      <trkpt lat="47.99328" lon="-2.27197">
        <ele>191</ele>
        <time>2018-05-21T12:22:57Z</time>
      </trkpt>
      <trkpt lat="47.99334" lon="-2.27205">
        <ele>191</ele>
        <time>2018-05-21T12:23:02Z</time>
      </trkpt>
      <trkpt lat="47.99358" lon="-2.27201">
        <ele>201</ele>
        <time>2018-05-21T12:23:33Z</time>
      </trkpt>
      <trkpt lat="47.9936" lon="-2.27184">
        <ele>201</ele>
        <time>2018-05-21T12:23:40Z</time>
      </trkpt>
      <trkpt lat="47.994" lon="-2.27095">
        <ele>186</ele>
        <time>2018-05-21T12:24:45Z</time>
      </trkpt>
      <trkpt lat="47.99381" lon="-2.27018">
        <ele>213</ele>
        <time>2018-05-21T12:24:59Z</time>
      </trkpt>
      <trkpt lat="47.99385" lon="-2.27026">
        <ele>204</ele>
        <time>2018-05-21T12:25:13Z</time>
      </trkpt>
      <trkpt lat="47.99395" lon="-2.26985">
        <ele>196</ele>
        <time>2018-05-21T12:25:27Z</time>
      </trkpt>
      <trkpt lat="47.99402" lon="-2.26997">
        <ele>178</ele>
        <time>2018-05-21T12:25:42Z</time>
      </trkpt>
      <trkpt lat="47.99401" lon="-2.2698">
        <ele>186</ele>
        <time>2018-05-21T12:25:57Z</time>
      </trkpt>
      <trkpt lat="47.99367" lon="-2.26961">
        <ele>188</ele>
        <time>2018-05-21T12:26:11Z</time>
      </trkpt>
      <trkpt lat="47.99436" lon="-2.26927">
        <ele>191</ele>
        <time>2018-05-21T12:26:25Z</time>
      </trkpt>
      <trkpt lat="47.9945" lon="-2.26884">
        <ele>186</ele>
        <time>2018-05-21T12:26:40Z</time>
      </trkpt>
      <trkpt lat="47.99462" lon="-2.26859">
        <ele>189</ele>
        <time>2018-05-21T12:26:49Z</time>
      </trkpt>
      <trkpt lat="47.9945" lon="-2.26842">
        <ele>195</ele>
        <time>2018-05-21T12:27:03Z</time>
      </trkpt>
      <trkpt lat="47.99457" lon="-2.26838">
        <ele>195</ele>
        <time>2018-05-21T12:27:18Z</time>
      </trkpt>
      <trkpt lat="47.99473" lon="-2.26821">
        <ele>193</ele>
        <time>2018-05-21T12:27:33Z</time>
      </trkpt>
      <trkpt lat="47.99478" lon="-2.26817">
        <ele>195</ele>
        <time>2018-05-21T12:27:41Z</time>
      </trkpt>
      <trkpt lat="47.99488" lon="-2.26727">
        <ele>205</ele>
        <time>2018-05-21T12:28:06Z</time>
      </trkpt>
      <trkpt lat="47.9947" lon="-2.26724">
        <ele>205</ele>
        <time>2018-05-21T12:28:12Z</time>
      </trkpt>
      <trkpt lat="47.9953" lon="-2.2673">
        <ele>208</ele>
        <time>2018-05-21T12:28:41Z</time>
      </trkpt>
      <trkpt lat="47.99528" lon="-2.26729">
        <ele>219</ele>
        <time>2018-05-21T12:28:44Z</time>
      </trkpt>
      <trkpt lat="47.99528" lon="-2.26729">
        <ele>219</ele>
        <time>2018-05-21T12:28:45Z</time>
      </trkpt>
      <trkpt lat="47.99495" lon="-2.26733">
        <ele>189</ele>
        <time>2018-05-21T12:28:50Z</time>
      </trkpt>
      <trkpt lat="47.99494" lon="-2.26723">
        <ele>173</ele>
        <time>2018-05-21T12:29:10Z</time>
      </trkpt>
      <trkpt lat="47.99494" lon="-2.26723">
        <ele>173</ele>
        <time>2018-05-21T12:29:11Z</time>
      </trkpt>
    </trkseg>
  </trk>
</gpx>